Time;durP1;ratioP1;P1;durP2;ratioP2;P2;SDS_P1;SDS_P2;PMS_P1;PMS_P2;Temp;Humidity;BMP_temperature;BMP_pressure;BME280_temperature;BME280_humidity;BME280_pressure;Samples;Min_cycle;Max_cycle;Signal;HPM_P1;HPM_P2
2023/06/10 00:01:59;;;;;;;22.17;20.47;;;18.20;99.90;;;;;;5062098;28;20842;-53
2023/06/10 00:04:25;;;;;;;20.20;18.80;;;18.20;99.90;;;;;;5061689;28;20423;-48
2023/06/10 00:06:51;;;;;;;22.03;20.43;;;18.20;99.90;;;;;;5062205;28;20542;-47
2023/06/10 00:09:18;;;;;;;21.73;20.07;;;18.20;99.90;;;;;;5061709;28;20602;-51
2023/06/10 00:11:44;;;;;;;21.50;19.90;;;18.20;99.90;;;;;;5061858;28;20178;-54
2023/06/10 00:14:09;;;;;;;21.77;20.00;;;18.10;99.90;;;;;;5062212;28;20768;-54
2023/06/10 00:16:36;;;;;;;22.03;20.33;;;18.10;99.90;;;;;;5061227;28;20460;-53
2023/06/10 00:19:03;;;;;;;21.77;20.10;;;18.10;99.90;;;;;;5061018;28;20786;-55
2023/06/10 00:21:29;;;;;;;20.60;18.90;;;18.00;99.90;;;;;;5043718;28;20785;-47
2023/06/10 00:23:56;;;;;;;21.50;19.90;;;18.00;99.90;;;;;;5061275;28;21055;-49
2023/06/10 00:26:25;;;;;;;21.27;19.53;;;17.90;99.90;;;;;;5061018;28;20792;-47
2023/06/10 00:28:52;;;;;;;21.03;19.40;;;17.90;99.90;;;;;;5061708;28;20503;-53
2023/06/10 00:31:17;;;;;;;20.80;19.17;;;17.90;99.90;;;;;;5061886;28;20407;-54
2023/06/10 00:33:43;;;;;;;20.67;18.97;;;17.80;99.90;;;;;;5061125;28;20476;-54
2023/06/10 00:36:09;;;;;;;21.23;19.27;;;17.80;99.90;;;;;;5061686;28;20671;-54
2023/06/10 00:38:34;;;;;;;20.63;18.93;;;17.80;99.90;;;;;;5061012;28;20189;-54
2023/06/10 00:41:00;;;;;;;21.00;19.30;;;17.70;99.90;;;;;;5060891;28;20185;-56
2023/06/10 00:43:25;;;;;;;21.20;19.20;;;17.70;99.90;;;;;;5061451;28;20199;-54
2023/06/10 00:45:52;;;;;;;22.40;20.50;;;17.70;99.90;;;;;;5061433;28;20690;-48
2023/06/10 00:48:18;;;;;;;24.00;21.90;;;17.60;99.90;;;;;;5058993;28;20185;-52
2023/06/10 00:50:46;;;;;;;23.80;21.90;;;17.50;99.90;;;;;;5061467;28;20416;-52
2023/06/10 00:53:12;;;;;;;23.90;22.10;;;17.40;99.90;;;;;;5060747;28;20462;-55
2023/06/10 00:55:37;;;;;;;22.83;21.10;;;17.40;99.90;;;;;;5061506;28;20411;-55
2023/06/10 00:58:04;;;;;;;23.50;21.50;;;17.30;99.90;;;;;;5061132;28;20500;-55
2023/06/10 01:00:29;;;;;;;24.33;22.23;;;17.20;99.90;;;;;;5061035;28;20239;-52
2023/06/10 01:02:55;;;;;;;23.00;21.13;;;17.20;99.90;;;;;;5059678;28;20447;-55
2023/06/10 01:05:22;;;;;;;23.37;21.47;;;17.20;99.90;;;;;;5060680;28;20220;-47
2023/06/10 01:08:01;;;;;;;24.47;22.57;;;17.10;99.90;;;;;;5061105;28;20272;-55
2023/06/10 01:10:47;;;;;;;23.60;21.80;;;17.10;99.90;;;;;;5059659;28;20470;-56
2023/06/10 01:13:13;;;;;;;23.00;21.33;;;17.00;99.90;;;;;;5060518;28;20790;-55
2023/06/10 01:15:39;;;;;;;23.57;21.77;;;17.00;99.90;;;;;;5060133;28;20432;-52
2023/06/10 01:18:10;;;;;;;23.47;21.70;;;16.90;99.90;;;;;;5060264;28;20431;-55
2023/06/10 01:20:39;;;;;;;23.20;21.37;;;17.00;99.90;;;;;;5060135;28;20431;-56
2023/06/10 01:23:06;;;;;;;23.23;21.30;;;17.00;99.90;;;;;;5060467;28;20650;-54
2023/06/10 01:25:36;;;;;;;23.13;21.27;;;17.00;99.90;;;;;;5060648;28;20419;-56
2023/06/10 01:28:16;;;;;;;23.10;21.23;;;16.90;99.90;;;;;;5060827;28;20426;-52
2023/06/10 01:31:00;;;;;;;22.87;21.07;;;17.00;99.90;;;;;;5059672;28;20435;-55
2023/06/10 01:33:29;;;;;;;22.50;20.60;;;17.00;99.90;;;;;;5042483;28;20441;-50
2023/06/10 01:35:58;;;;;;;23.40;21.70;;;17.00;99.90;;;;;;5060737;28;20431;-51
2023/06/10 01:38:26;;;;;;;24.20;22.40;;;17.00;99.90;;;;;;5060511;28;20430;-52
2023/06/10 01:40:53;;;;;;;22.50;20.80;;;17.00;99.90;;;;;;5060326;28;20419;-54
2023/06/10 01:43:20;;;;;;;22.73;20.93;;;17.00;99.90;;;;;;5059733;28;20530;-53
2023/06/10 01:45:46;;;;;;;23.47;21.57;;;17.00;99.90;;;;;;5060762;28;20415;-55
2023/06/10 01:48:12;;;;;;;22.90;21.20;;;17.00;99.90;;;;;;5060064;28;20447;-53
2023/06/10 01:50:37;;;;;;;23.83;21.93;;;17.00;99.90;;;;;;5060840;28;20169;-53
2023/06/10 01:53:05;;;;;;;23.47;21.53;;;17.00;99.90;;;;;;5059731;28;20204;-53
2023/06/10 01:55:30;;;;;;;23.63;21.53;;;17.00;99.90;;;;;;5060452;28;20717;-49
2023/06/10 01:57:56;;;;;;;23.90;22.10;;;17.10;99.90;;;;;;5060173;28;20435;-53
2023/06/10 02:00:22;;;;;;;23.27;21.47;;;17.10;99.90;;;;;;5060425;28;20185;-56
2023/06/10 02:02:47;;;;;;;21.97;20.37;;;17.10;99.90;;;;;;5059161;28;20205;-48
2023/06/10 02:05:13;;;;;;;23.10;21.30;;;17.10;99.90;;;;;;5058458;28;20191;-45
2023/06/10 02:07:39;;;;;;;22.90;21.20;;;17.10;99.90;;;;;;5059718;28;20181;-54
2023/06/10 02:10:06;;;;;;;23.60;21.80;;;17.10;99.90;;;;;;5059253;28;20189;-53
2023/06/10 02:12:31;;;;;;;23.43;21.33;;;17.10;99.90;;;;;;5058962;28;20272;-52
2023/06/10 02:14:57;;;;;;;23.33;21.43;;;17.10;99.90;;;;;;5059356;28;20990;-53
2023/06/10 02:17:23;;;;;;;22.73;21.03;;;17.00;99.90;;;;;;5059679;28;20531;-54
2023/06/10 02:19:52;;;;;;;23.00;21.17;;;17.10;99.90;;;;;;5062664;28;20772;-51
2023/06/10 02:22:22;;;;;;;24.23;22.30;;;17.00;99.90;;;;;;5063194;28;20459;-55
2023/06/10 02:24:47;;;;;;;23.07;21.37;;;17.00;99.90;;;;;;5062834;28;20516;-56
2023/06/10 02:27:14;;;;;;;24.20;22.40;;;17.00;99.90;;;;;;5063272;28;20426;-53
2023/06/10 02:29:41;;;;;;;24.73;22.90;;;17.00;99.90;;;;;;5063019;28;20193;-49
2023/06/10 02:32:07;;;;;;;23.17;21.47;;;17.00;99.90;;;;;;5062983;28;20419;-55
2023/06/10 02:34:33;;;;;;;23.63;21.80;;;16.90;99.90;;;;;;5060618;28;20455;-53
2023/06/10 02:36:59;;;;;;;23.40;21.60;;;16.90;99.90;;;;;;5062026;28;20433;-57
2023/06/10 02:39:25;;;;;;;23.83;21.93;;;16.80;99.90;;;;;;5044743;28;20940;-49
2023/06/10 02:41:51;;;;;;;23.23;21.33;;;16.80;99.90;;;;;;5044435;28;20189;-53
2023/06/10 02:44:18;;;;;;;23.83;21.93;;;16.70;99.90;;;;;;5062592;28;20494;-56
2023/06/10 02:46:44;;;;;;;24.47;22.47;;;16.70;99.90;;;;;;5063033;28;20513;-51
2023/06/10 02:49:09;;;;;;;24.53;22.73;;;16.60;99.90;;;;;;5062571;28;20419;-50
2023/06/10 02:51:35;;;;;;;23.70;21.80;;;16.50;99.90;;;;;;5062099;28;20196;-55
2023/06/10 02:54:01;;;;;;;24.30;22.30;;;16.50;99.90;;;;;;5044612;28;20185;-52
2023/06/10 02:56:27;;;;;;;23.90;21.90;;;16.40;99.90;;;;;;5062470;28;20943;-55
2023/06/10 02:58:53;;;;;;;24.60;22.60;;;16.30;99.90;;;;;;5063239;28;20177;-52
2023/06/10 03:01:18;;;;;;;24.13;22.13;;;16.30;99.90;;;;;;5062073;28;20196;-56
2023/06/10 03:03:46;;;;;;;23.57;21.67;;;16.20;99.90;;;;;;5062617;28;20205;-56
2023/06/10 03:06:12;;;;;;;23.70;21.90;;;16.20;99.90;;;;;;5061931;28;20188;-52
2023/06/10 03:08:39;;;;;;;23.60;21.70;;;16.10;99.90;;;;;;5062235;28;20426;-51
2023/06/10 03:11:04;;;;;;;24.80;22.67;;;16.10;99.90;;;;;;5061903;28;20960;-52
2023/06/10 03:13:30;;;;;;;24.53;22.43;;;16.10;99.90;;;;;;5062518;28;20515;-52
2023/06/10 03:15:56;;;;;;;24.70;22.70;;;16.00;99.90;;;;;;5062225;28;20539;-52
2023/06/10 03:18:25;;;;;;;24.23;22.13;;;16.00;99.90;;;;;;5061090;28;20281;-53
2023/06/10 03:20:51;;;;;;;25.30;23.10;;;16.00;99.90;;;;;;5062335;28;20411;-54
2023/06/10 03:23:18;;;;;;;23.03;21.17;;;16.00;99.90;;;;;;5061450;28;20972;-52
2023/06/10 03:25:44;;;;;;;23.90;22.00;;;16.00;99.90;;;;;;5062109;28;20744;-52
2023/06/10 03:28:10;;;;;;;23.80;21.93;;;16.00;99.90;;;;;;5062095;28;20419;-56
2023/06/10 03:30:35;;;;;;;22.30;20.50;;;16.00;99.90;;;;;;5061869;28;20417;-52
2023/06/10 03:33:01;;;;;;;22.70;20.97;;;15.90;99.90;;;;;;5043446;28;20212;-53
2023/06/10 03:35:26;;;;;;;23.13;21.13;;;15.90;99.90;;;;;;5059884;28;20224;-52
2023/06/10 03:37:52;;;;;;;21.33;19.63;;;15.90;99.90;;;;;;5059281;28;20552;-54
2023/06/10 03:40:18;;;;;;;23.67;21.67;;;15.90;99.90;;;;;;5061373;28;20185;-54
2023/06/10 03:42:44;;;;;;;22.47;20.57;;;15.90;99.90;;;;;;5061110;28;20303;-49
2023/06/10 03:45:10;;;;;;;22.00;20.27;;;15.90;99.90;;;;;;5061341;28;20578;-50
2023/06/10 03:47:36;;;;;;;22.50;20.60;;;15.90;99.90;;;;;;5061589;28;20423;-51
2023/06/10 03:50:04;;;;;;;20.83;19.23;;;15.90;99.90;;;;;;5061583;28;20407;-42
2023/06/10 03:52:30;;;;;;;21.40;19.60;;;15.90;99.90;;;;;;5060695;28;20532;-47
2023/06/10 03:54:56;;;;;;;22.20;20.33;;;15.90;99.90;;;;;;5060828;28;20447;-42
2023/06/10 03:57:21;;;;;;;22.60;20.60;;;15.90;99.90;;;;;;5061421;28;20411;-44
2023/06/10 03:59:47;;;;;;;21.20;19.40;;;15.90;99.90;;;;;;5062064;28;20711;-45
2023/06/10 04:02:13;;;;;;;21.63;19.83;;;15.90;99.90;;;;;;5042950;28;20858;-42
2023/06/10 04:04:38;;;;;;;22.43;20.63;;;16.00;99.90;;;;;;5060839;28;20260;-45
2023/06/10 04:07:05;;;;;;;21.60;19.80;;;16.00;99.90;;;;;;5060854;28;20561;-42
2023/06/10 04:09:30;;;;;;;22.20;20.30;;;16.00;99.90;;;;;;5059986;28;20544;-44
2023/06/10 04:11:56;;;;;;;22.07;20.30;;;16.00;99.90;;;;;;5061634;28;20423;-45
2023/06/10 04:14:22;;;;;;;23.17;21.27;;;16.10;99.90;;;;;;5061156;28;20239;-42
2023/06/10 04:16:47;;;;;;;21.30;19.60;;;16.00;99.90;;;;;;5061292;28;20271;-42
2023/06/10 04:19:13;;;;;;;22.13;20.17;;;16.10;99.90;;;;;;5059646;28;20197;-43
2023/06/10 04:21:38;;;;;;;20.80;18.90;;;16.10;99.90;;;;;;5060835;28;20181;-44
2023/06/10 04:24:04;;;;;;;22.53;20.53;;;16.20;99.90;;;;;;5060956;28;20233;-44
2023/06/10 04:26:30;;;;;;;22.37;20.47;;;16.20;99.90;;;;;;5042676;28;20185;-42
2023/06/10 04:28:55;;;;;;;23.10;20.90;;;16.30;99.90;;;;;;5061118;28;20188;-42
2023/06/10 04:31:21;;;;;;;22.43;20.53;;;16.30;99.90;;;;;;5060906;28;20444;-44
2023/06/10 04:33:47;;;;;;;21.13;19.33;;;16.30;99.90;;;;;;5059272;28;20181;-44
2023/06/10 04:36:12;;;;;;;21.73;20.03;;;16.40;99.90;;;;;;5060288;28;20192;-45
2023/06/10 04:38:38;;;;;;;21.43;19.73;;;16.40;99.90;;;;;;5061169;28;21017;-44
2023/06/10 04:41:03;;;;;;;21.00;19.40;;;16.40;99.90;;;;;;5059940;28;20208;-44
2023/06/10 04:43:30;;;;;;;21.90;19.90;;;16.50;99.90;;;;;;5060319;28;20208;-44
2023/06/10 04:45:56;;;;;;;21.03;19.30;;;16.50;99.90;;;;;;5060001;28;20185;-47
2023/06/10 04:48:23;;;;;;;21.47;19.77;;;16.60;99.90;;;;;;5060309;28;20489;-48
2023/06/10 04:50:50;;;;;;;22.23;20.43;;;16.60;99.90;;;;;;5060271;28;20458;-50
2023/06/10 04:53:16;;;;;;;22.43;20.53;;;16.70;99.90;;;;;;5042372;28;20511;-44
2023/06/10 04:55:42;;;;;;;22.00;20.00;;;16.70;99.90;;;;;;5060138;28;20762;-44
2023/06/10 04:58:08;;;;;;;22.67;20.77;;;16.80;99.90;;;;;;5060483;28;20850;-47
2023/06/10 05:00:33;;;;;;;22.80;20.90;;;16.80;99.90;;;;;;5058177;28;20437;-41
2023/06/10 05:02:59;;;;;;;23.97;21.87;;;16.90;99.90;;;;;;5059501;28;20428;-44
2023/06/10 05:05:25;;;;;;;23.27;21.47;;;16.90;99.90;;;;;;5060073;28;20177;-43
2023/06/10 05:07:50;;;;;;;22.10;20.30;;;17.00;99.90;;;;;;5041998;28;20177;-45
2023/06/10 05:10:16;;;;;;;22.90;21.10;;;17.10;99.90;;;;;;5060119;28;20203;-47
2023/06/10 05:12:42;;;;;;;22.43;20.63;;;17.10;99.90;;;;;;5059283;28;20239;-44
2023/06/10 05:15:08;;;;;;;22.13;20.43;;;17.20;99.90;;;;;;5059858;28;20185;-44
2023/06/10 05:17:37;;;;;;;23.03;21.23;;;17.30;99.90;;;;;;5059378;28;20435;-42
2023/06/10 05:20:03;;;;;;;22.97;21.17;;;17.30;99.90;;;;;;5060144;28;20407;-42
2023/06/10 05:22:28;;;;;;;22.00;20.30;;;17.40;99.90;;;;;;5059661;28;20894;-48
2023/06/10 05:24:54;;;;;;;23.03;21.13;;;17.40;99.90;;;;;;5041444;28;20471;-42
2023/06/10 05:27:21;;;;;;;23.57;21.77;;;17.40;99.90;;;;;;5059833;28;20177;-43
2023/06/10 05:29:46;;;;;;;24.13;22.03;;;17.50;99.90;;;;;;5058413;28;20173;-43
2023/06/10 05:32:12;;;;;;;23.17;21.20;;;17.50;99.90;;;;;;5057778;28;20536;-42
2023/06/10 05:34:38;;;;;;;23.97;22.07;;;17.60;99.90;;;;;;5059564;28;20518;-44
2023/06/10 05:37:04;;;;;;;22.23;20.53;;;17.60;99.90;;;;;;5039482;28;20185;-44
2023/06/10 05:39:29;;;;;;;23.17;21.37;;;17.70;99.90;;;;;;5059575;28;20776;-43
2023/06/10 05:41:55;;;;;;;24.17;22.17;;;17.80;99.90;;;;;;5056893;28;20439;-42
2023/06/10 05:44:21;;;;;;;22.53;20.87;;;18.00;99.90;;;;;;5057021;28;20196;-46
2023/06/10 05:46:46;;;;;;;21.90;20.30;;;18.20;99.90;;;;;;5056547;28;20524;-42
2023/06/10 05:49:12;;;;;;;23.50;21.70;;;18.40;99.90;;;;;;5058997;28;20605;-43
2023/06/10 05:51:38;;;;;;;23.20;21.50;;;18.60;99.90;;;;;;5057036;28;20185;-45
2023/06/10 05:54:04;;;;;;;22.83;21.13;;;18.80;99.90;;;;;;5059669;28;20971;-46
2023/06/10 05:56:29;;;;;;;22.70;21.10;;;18.90;99.90;;;;;;5060657;28;20573;-48
2023/06/10 05:58:56;;;;;;;22.00;20.40;;;19.00;99.90;;;;;;5059608;28;20278;-45
2023/06/10 06:01:21;;;;;;;22.90;21.30;;;19.20;99.90;;;;;;5058640;28;20185;-43
2023/06/10 06:03:47;;;;;;;22.30;20.70;;;19.30;99.90;;;;;;5059992;28;20521;-44
2023/06/10 06:06:13;;;;;;;22.60;21.00;;;19.30;99.90;;;;;;5058314;28;21604;-43
2023/06/10 06:08:41;;;;;;;22.10;20.03;;;19.40;99.90;;;;;;5059756;28;20192;-45
2023/06/10 06:11:09;;;;;;;21.93;20.43;;;19.40;99.90;;;;;;5056865;28;20291;-47
2023/06/10 06:13:35;;;;;;;22.97;21.27;;;19.50;99.90;;;;;;5060050;28;20860;-43
2023/06/10 06:16:01;;;;;;;22.90;21.30;;;19.60;99.90;;;;;;5041485;28;20518;-44
2023/06/10 06:18:26;;;;;;;22.13;20.53;;;19.60;99.90;;;;;;5059736;28;20618;-42
2023/06/10 06:20:52;;;;;;;21.33;19.77;;;19.60;99.90;;;;;;5060079;28;20189;-41
2023/06/10 06:23:17;;;;;;;21.53;20.03;;;19.60;99.90;;;;;;5058622;28;20267;-42
2023/06/10 06:25:43;;;;;;;22.60;20.93;;;19.70;99.90;;;;;;5060098;28;20292;-44
2023/06/10 06:28:10;;;;;;;21.67;20.13;;;19.70;99.90;;;;;;5059246;28;20234;-43
2023/06/10 06:30:35;;;;;;;23.10;21.40;;;19.70;99.90;;;;;;5059353;28;20216;-45
2023/06/10 06:33:01;;;;;;;22.67;20.90;;;19.70;99.90;;;;;;5059480;28;20850;-42
2023/06/10 06:35:27;;;;;;;20.73;19.23;;;19.70;99.90;;;;;;5059084;28;20513;-41
2023/06/10 06:37:53;;;;;;;21.47;19.87;;;19.80;99.90;;;;;;5058526;28;20427;-45
2023/06/10 06:40:18;;;;;;;20.83;19.37;;;19.80;99.90;;;;;;5059679;28;20232;-43
2023/06/10 06:42:44;;;;;;;22.07;20.57;;;19.80;99.90;;;;;;5058554;28;20209;-42
2023/06/10 06:45:10;;;;;;;22.07;20.30;;;19.80;99.90;;;;;;5059669;28;20614;-44
2023/06/10 06:47:36;;;;;;;21.87;20.20;;;19.90;99.90;;;;;;5059045;28;20427;-42
2023/06/10 06:50:02;;;;;;;20.33;19.00;;;20.00;99.90;;;;;;5058826;28;20694;-43
2023/06/10 06:52:28;;;;;;;21.27;19.77;;;20.10;99.90;;;;;;5056680;28;20185;-44
2023/06/10 06:54:53;;;;;;;21.27;19.70;;;20.20;99.90;;;;;;5058802;28;21001;-43
2023/06/10 06:57:19;;;;;;;19.70;18.30;;;20.30;99.90;;;;;;5059388;28;20444;-44
2023/06/10 06:59:45;;;;;;;22.67;21.07;;;20.40;99.90;;;;;;5058070;28;20188;-45
2023/06/10 07:02:10;;;;;;;20.13;18.73;;;20.50;99.90;;;;;;5059194;28;20196;-44
2023/06/10 07:04:36;;;;;;;20.60;19.10;;;20.70;99.90;;;;;;5044516;28;20185;-42
2023/06/10 07:07:02;;;;;;;20.87;19.27;;;20.80;99.90;;;;;;5063448;28;20207;-44
2023/06/10 07:09:28;;;;;;;20.70;19.20;;;20.90;99.90;;;;;;5063562;28;20423;-45
2023/06/10 07:11:53;;;;;;;19.83;18.47;;;21.00;99.90;;;;;;5062750;28;21277;-42
2023/06/10 07:14:19;;;;;;;19.90;18.50;;;21.10;99.90;;;;;;5063387;28;20181;-47
2023/06/10 07:16:46;;;;;;;18.57;17.27;;;21.20;99.90;;;;;;5063079;28;20193;-46
2023/06/10 07:19:11;;;;;;;18.00;16.80;;;21.40;99.90;;;;;;5062385;28;20166;-44
2023/06/10 07:21:37;;;;;;;18.73;17.57;;;21.70;99.90;;;;;;5062024;28;20431;-45
2023/06/10 07:24:03;;;;;;;17.60;16.27;;;21.70;99.90;;;;;;5062371;28;20576;-45
2023/06/10 07:26:29;;;;;;;19.60;18.40;;;21.80;99.90;;;;;;5063062;28;20419;-44
2023/06/10 07:28:55;;;;;;;18.20;17.07;;;21.90;99.90;;;;;;5063083;28;20924;-44
2023/06/10 07:31:21;;;;;;;18.87;17.67;;;21.90;99.90;;;;;;5062935;28;20184;-45
2023/06/10 07:33:47;;;;;;;19.27;17.97;;;21.90;99.90;;;;;;5062889;28;20407;-43
2023/06/10 07:36:12;;;;;;;17.87;16.67;;;22.00;99.90;;;;;;5062696;28;20230;-47
2023/06/10 07:38:38;;;;;;;18.83;17.70;;;22.00;99.90;;;;;;5062914;28;20415;-45
2023/06/10 07:41:03;;;;;;;17.30;16.20;;;22.10;99.90;;;;;;5063006;28;20181;-43
2023/06/10 07:43:29;;;;;;;18.70;17.60;;;22.20;99.90;;;;;;5044477;28;20223;-43
2023/06/10 07:45:55;;;;;;;18.23;17.13;;;22.00;99.90;;;;;;5062522;28;20271;-42
2023/06/10 07:48:20;;;;;;;18.50;17.30;;;22.10;99.90;;;;;;5062589;28;20185;-44
2023/06/10 07:50:46;;;;;;;18.60;17.47;;;22.00;99.90;;;;;;5043964;28;20185;-41
2023/06/10 07:53:11;;;;;;;19.30;18.10;;;22.00;99.90;;;;;;5061769;28;20182;-43
2023/06/10 07:55:37;;;;;;;18.67;17.33;;;22.00;99.90;;;;;;5062563;28;20177;-43
2023/06/10 07:58:03;;;;;;;18.33;17.13;;;21.90;99.90;;;;;;5044394;28;20193;-44
2023/06/10 08:00:28;;;;;;;17.90;16.70;;;21.90;99.90;;;;;;5062494;28;20745;-44
2023/06/10 08:02:54;;;;;;;18.90;17.70;;;22.00;99.90;;;;;;5062405;28;20224;-44
2023/06/10 08:05:20;;;;;;;17.60;16.50;;;22.20;99.90;;;;;;5062077;28;20188;-45
2023/06/10 08:07:46;;;;;;;18.57;17.27;;;22.40;99.90;;;;;;5044433;28;20192;-43
2023/06/10 08:10:11;;;;;;;18.60;17.40;;;22.40;99.90;;;;;;5062085;28;20424;-45
2023/06/10 08:12:37;;;;;;;18.90;17.70;;;22.70;99.90;;;;;;5062056;28;20192;-47
2023/06/10 08:15:04;;;;;;;18.80;17.60;;;22.90;99.90;;;;;;5061295;28;20185;-44
2023/06/10 08:17:30;;;;;;;18.30;17.10;;;23.20;99.90;;;;;;5061869;28;20173;-45
2023/06/10 08:19:56;;;;;;;20.37;18.97;;;23.40;99.90;;;;;;5061611;28;20500;-41
2023/06/10 08:22:21;;;;;;;20.63;19.23;;;23.60;99.90;;;;;;5061806;28;20491;-43
2023/06/10 08:24:47;;;;;;;19.17;17.97;;;23.70;99.90;;;;;;5061887;28;20233;-45
2023/06/10 08:27:13;;;;;;;18.97;17.77;;;23.70;99.90;;;;;;5061918;28;20184;-44
2023/06/10 08:29:39;;;;;;;19.50;18.20;;;23.80;99.90;;;;;;5061773;28;20571;-43
2023/06/10 08:32:05;;;;;;;19.93;18.53;;;24.00;99.90;;;;;;5061847;28;20193;-43
2023/06/10 08:34:33;;;;;;;18.80;17.50;;;24.00;99.90;;;;;;5061845;28;20419;-42
2023/06/10 08:36:59;;;;;;;19.27;18.07;;;24.20;99.90;;;;;;5061986;28;20426;-46
2023/06/10 08:39:25;;;;;;;18.43;17.13;;;24.40;99.90;;;;;;5061907;28;20411;-44
2023/06/10 08:42:19;;;;;;;19.60;18.40;;;24.60;99.90;;;;;;5061549;28;20185;-46
2023/06/10 08:44:46;;;;;;;17.67;16.57;;;24.90;99.90;;;;;;5061463;28;20189;-45
2023/06/10 08:47:16;;;;;;;17.03;15.83;;;25.10;98.50;;;;;;5061738;28;20812;-47
2023/06/10 08:49:45;;;;;;;17.60;16.50;;;25.20;95.80;;;;;;5060744;28;20434;-43
2023/06/10 08:52:18;;;;;;;18.00;16.90;;;25.30;96.50;;;;;;5060741;28;20527;-43
2023/06/10 08:54:52;;;;;;;17.40;16.20;;;25.50;96.20;;;;;;5061170;28;20461;-43
2023/06/10 08:57:20;;;;;;;18.10;16.90;;;25.60;95.50;;;;;;5061720;28;21039;-50
2023/06/10 08:59:46;;;;;;;18.67;17.30;;;25.80;94.90;;;;;;5060995;28;20422;-43
2023/06/10 09:02:13;;;;;;;16.60;15.70;;;25.90;92.90;;;;;;5060078;28;20890;-46
2023/06/10 09:04:39;;;;;;;17.50;16.30;;;25.90;92.50;;;;;;5060354;28;20690;-44
2023/06/10 09:07:06;;;;;;;18.90;17.70;;;26.20;91.90;;;;;;5060511;28;20505;-44
2023/06/10 09:09:34;;;;;;;18.93;17.73;;;26.50;91.40;;;;;;5060604;28;20419;-42
2023/06/10 09:12:00;;;;;;;17.90;16.90;;;26.30;90.40;;;;;;5060129;28;20415;-43
2023/06/10 09:14:25;;;;;;;17.90;16.80;;;26.30;90.70;;;;;;5060460;28;21016;-45
2023/06/10 09:16:51;;;;;;;17.83;16.63;;;26.50;90.40;;;;;;5060108;28;20437;-43
2023/06/10 09:19:17;;;;;;;17.47;16.37;;;26.60;90.50;;;;;;5059850;28;20177;-42
2023/06/10 09:21:43;;;;;;;16.40;15.43;;;26.30;88.00;;;;;;5059589;28;20181;-49
2023/06/10 09:24:09;;;;;;;18.07;16.97;;;26.20;90.60;;;;;;5059659;28;20528;-45
2023/06/10 09:26:34;;;;;;;16.90;15.90;;;26.10;90.40;;;;;;5041932;28;20246;-45
2023/06/10 09:29:11;;;;;;;18.60;17.37;;;26.40;90.80;;;;;;5059695;28;21000;-48
2023/06/10 09:31:38;;;;;;;18.27;16.93;;;26.70;87.00;;;;;;5059974;28;20597;-47
2023/06/10 09:34:12;;;;;;;17.40;16.40;;;26.80;84.70;;;;;;5059809;28;20428;-43
2023/06/10 09:36:38;;;;;;;17.70;16.60;;;27.00;86.10;;;;;;5059546;28;20453;-44
2023/06/10 09:39:05;;;;;;;17.07;16.07;;;27.20;81.80;;;;;;5041647;28;21259;-45
2023/06/10 09:41:35;;;;;;;17.57;16.47;;;27.40;80.40;;;;;;5059440;28;20966;-50
2023/06/10 09:44:02;;;;;;;17.30;16.10;;;27.70;80.40;;;;;;5059620;28;20455;-47
2023/06/10 09:46:32;;;;;;;16.60;15.60;;;27.90;81.70;;;;;;5059360;28;20962;-44
2023/06/10 09:48:58;;;;;;;17.97;16.87;;;28.60;72.90;;;;;;5057029;28;20431;-43
2023/06/10 09:51:24;;;;;;;16.87;15.97;;;29.00;72.30;;;;;;5059042;28;20849;-42
2023/06/10 09:53:54;;;;;;;17.23;16.17;;;29.30;69.80;;;;;;5059884;28;20423;-44
2023/06/10 09:56:20;;;;;;;15.90;15.10;;;29.60;61.20;;;;;;5059526;28;20326;-43
2023/06/10 09:58:46;;;;;;;15.10;14.30;;;29.80;61.50;;;;;;5059242;28;20693;-47
2023/06/10 10:01:14;;;;;;;17.10;16.20;;;30.40;60.60;;;;;;5059639;28;20408;-45
2023/06/10 10:03:52;;;;;;;16.47;15.57;;;31.20;53.80;;;;;;5058943;28;20207;-43
2023/06/10 10:06:20;;;;;;;16.93;16.03;;;31.80;50.40;;;;;;5059600;28;20426;-46
2023/06/10 10:08:48;;;;;;;16.53;15.63;;;32.00;49.40;;;;;;5059207;28;21036;-47
2023/06/10 10:11:17;;;;;;;16.73;15.73;;;32.00;46.80;;;;;;5058127;28;21037;-44
2023/06/10 10:13:47;;;;;;;15.53;14.67;;;31.70;43.70;;;;;;5059011;28;20426;-47
2023/06/10 10:16:35;;;;;;;17.50;16.50;;;31.40;45.50;;;;;;5058623;28;20432;-46
2023/06/10 10:19:07;;;;;;;18.70;17.60;;;31.00;45.80;;;;;;5057874;28;20593;-47
2023/06/10 10:21:40;;;;;;;17.53;16.43;;;30.00;48.90;;;;;;5058367;28;20423;-44
2023/06/10 10:24:17;;;;;;;18.03;16.93;;;29.60;51.60;;;;;;5059069;28;20502;-44
2023/06/10 10:26:45;;;;;;;19.97;18.77;;;28.80;52.90;;;;;;5059161;28;20408;-49
2023/06/10 10:29:30;;;;;;;17.67;16.67;;;28.30;57.00;;;;;;5040767;28;20905;-43
2023/06/10 10:32:00;;;;;;;16.97;15.97;;;27.90;61.70;;;;;;5059234;28;20494;-45
2023/06/10 10:35:05;;;;;;;17.20;16.20;;;27.80;64.70;;;;;;5058949;28;20423;-50
2023/06/10 10:37:31;;;;;;;17.83;16.83;;;27.70;63.90;;;;;;5057544;28;20796;-44
2023/06/10 10:39:58;;;;;;;17.00;16.00;;;28.50;61.30;;;;;;5044252;28;20434;-44
2023/06/10 10:42:24;;;;;;;16.80;15.90;;;29.40;58.20;;;;;;5062756;28;20419;-46
2023/06/10 10:44:50;;;;;;;16.10;15.20;;;30.30;52.80;;;;;;5062807;28;20415;-46
2023/06/10 10:47:21;;;;;;;16.70;15.70;;;30.50;47.90;;;;;;5061901;28;20434;-46
2023/06/10 10:49:50;;;;;;;16.50;15.60;;;30.60;46.90;;;;;;5062712;28;20442;-44
2023/06/10 10:52:16;;;;;;;14.93;14.13;;;31.10;45.10;;;;;;5062565;28;20411;-45
2023/06/10 10:54:46;;;;;;;16.53;15.63;;;31.80;39.90;;;;;;5062633;28;20413;-47
2023/06/10 10:57:20;;;;;;;16.90;16.00;;;31.90;40.20;;;;;;5062581;28;20191;-47
2023/06/10 10:59:52;;;;;;;17.00;15.90;;;31.90;38.00;;;;;;5062456;28;20923;-46
2023/06/10 11:02:48;;;;;;;16.47;15.57;;;32.10;38.60;;;;;;5063290;28;20415;-43
2023/06/10 11:05:17;;;;;;;17.67;16.67;;;32.10;37.60;;;;;;5054902;28;20462;-42
2023/06/10 11:07:56;;;;;;;16.30;15.40;;;32.10;37.30;;;;;;5063407;28;20481;-43
2023/06/10 11:10:40;;;;;;;17.37;16.27;;;31.90;37.20;;;;;;5063432;28;21077;-48
2023/06/10 11:13:20;;;;;;;15.77;14.80;;;31.50;37.70;;;;;;5063514;28;21109;-45
2023/06/10 11:15:47;;;;;;;16.97;16.07;;;31.90;38.50;;;;;;5063065;28;20477;-46
2023/06/10 11:18:26;;;;;;;16.90;16.00;;;32.30;38.70;;;;;;5062382;28;20479;-48
2023/06/10 11:20:57;;;;;;;16.87;15.90;;;33.10;35.50;;;;;;5063237;28;20468;-46
2023/06/10 11:23:30;;;;;;;16.90;16.00;;;33.30;35.10;;;;;;5062575;28;20486;-44
2023/06/10 11:26:19;;;;;;;18.00;17.00;;;33.30;34.40;;;;;;5063251;28;20897;-41
2023/06/10 11:28:47;;;;;;;17.47;16.57;;;32.70;33.20;;;;;;5063131;28;20416;-42
2023/06/10 11:31:29;;;;;;;16.83;15.77;;;32.30;35.80;;;;;;5062984;28;20415;-46
2023/06/10 11:33:55;;;;;;;17.67;16.67;;;31.80;36.30;;;;;;5063372;28;20426;-44
2023/06/10 11:36:22;;;;;;;17.17;16.27;;;32.10;37.30;;;;;;5062689;28;20427;-42
2023/06/10 11:38:48;;;;;;;17.47;16.57;;;32.70;36.90;;;;;;5062753;28;20420;-56
2023/06/10 11:41:15;;;;;;;16.20;15.30;;;33.70;35.50;;;;;;5062896;28;20928;-51
2023/06/10 11:43:44;;;;;;;17.50;16.53;;;34.70;33.00;;;;;;5062460;28;20886;-56
2023/06/10 11:46:10;;;;;;;17.40;16.30;;;35.50;31.60;;;;;;5061605;28;20427;-56
2023/06/10 11:48:36;;;;;;;17.13;16.27;;;36.30;29.00;;;;;;5061240;28;20774;-55
2023/06/10 11:51:08;;;;;;;17.20;16.30;;;36.80;27.90;;;;;;5061879;28;20468;-53
2023/06/10 11:53:35;;;;;;;17.50;16.50;;;37.10;26.90;;;;;;5062513;28;20216;-56
2023/06/10 11:56:00;;;;;;;16.10;15.27;;;37.50;25.90;;;;;;5062487;28;20778;-56
2023/06/10 11:58:26;;;;;;;16.43;15.53;;;37.60;24.30;;;;;;5062430;28;20473;-56
2023/06/10 12:00:54;;;;;;;16.23;15.23;;;37.80;24.50;;;;;;5062496;28;20177;-55
2023/06/10 12:03:22;;;;;;;16.73;15.93;;;37.30;24.20;;;;;;5061121;28;20217;-52
2023/06/10 12:05:55;;;;;;;16.67;15.77;;;36.80;24.70;;;;;;5061486;28;20516;-56
2023/06/10 12:08:20;;;;;;;17.07;16.13;;;36.30;25.50;;;;;;5061045;28;20439;-54
2023/06/10 12:10:47;;;;;;;16.70;15.80;;;35.80;25.80;;;;;;5062282;28;20422;-57
2023/06/10 12:13:12;;;;;;;17.10;16.27;;;35.80;26.60;;;;;;5062456;28;20226;-55
2023/06/10 12:15:38;;;;;;;16.80;15.80;;;35.90;25.70;;;;;;5062007;28;20905;-54
2023/06/10 12:18:04;;;;;;;16.67;15.83;;;35.60;25.50;;;;;;5062189;28;20531;-55
2023/06/10 12:20:33;;;;;;;16.20;15.40;;;35.40;25.80;;;;;;5062282;28;20351;-53
2023/06/10 12:23:00;;;;;;;17.50;16.60;;;34.80;26.70;;;;;;5061896;28;20204;-56
2023/06/10 12:25:29;;;;;;;16.57;15.70;;;34.60;26.90;;;;;;5061794;28;20419;-54
2023/06/10 12:27:57;;;;;;;16.83;15.93;;;34.60;27.10;;;;;;5061825;28;21230;-54
2023/06/10 12:30:24;;;;;;;17.40;16.37;;;34.30;26.80;;;;;;5061902;28;20490;-55